Shady Dale, Georgia
Current Conditions -  °F | °C
As of 3:15 AM on Saturday 25 Oct 2014 (Local Time) from KCVC Reporting Station
Clear Clear  
Wind Chill: 52°   Ceiling: Unl
Heat Index: 52°   Visibility: 10mi
Dew Point: 46°   Wind: 3mph
Humidity: 82%   Direction: 310°NW
Pressure: 30"   Gusts: NA
Location:  33.4°N, 83.59°W
Report Text: KCVC 250715Z AUTO 31003KT 10SM CLR 11/08 A3000 RMK AO2
Loading
Personal Weather Stations






























Interactive Weather Map New forecast layout! Learn more

10-Day Weather Forecast

Advertisements
Track Severe Weather on mobile